Time;durP1;ratioP1;P1;durP2;ratioP2;P2;SDS_P1;SDS_P2;PMS_P1;PMS_P2;Temp;Humidity;BMP_temperature;BMP_pressure;BME280_temperature;BME280_humidity;BME280_pressure;Samples;Min_cycle;Max_cycle;Signal;HPM_P1;HPM_P2
2022/03/12 00:00:56;;;;;;;16.50;9.33;;;;;;;1.16;60.54;100528.78;5111318;28;20222;-79
2022/03/12 00:03:25;;;;;;;14.80;8.87;;;;;;;1.40;61.05;100585.66;5090899;28;20215;-79
2022/03/12 00:05:53;;;;;;;18.07;8.70;;;;;;;1.41;61.98;100597.63;5090995;28;20196;-79
2022/03/12 00:08:21;;;;;;;12.57;8.77;;;;;;;1.29;62.70;100592.22;5102893;28;20207;-79
2022/03/12 00:10:51;;;;;;;13.23;8.93;;;;;;;1.28;62.64;100600.72;5111392;28;20696;-79
2022/03/12 00:13:20;;;;;;;16.90;9.43;;;;;;;0.92;62.86;100523.03;5107958;28;20593;-79
2022/03/12 00:15:47;;;;;;;12.87;9.37;;;;;;;1.46;63.11;100595.22;5091114;28;20199;-80
2022/03/12 00:18:16;;;;;;;13.00;9.17;;;;;;;1.20;63.17;100581.75;5090972;28;20270;-79
2022/03/12 00:20:48;;;;;;;13.87;9.27;;;;;;;1.12;63.21;100602.84;5090809;28;20294;-78
2022/03/12 00:23:21;;;;;;;18.23;9.67;;;;;;;0.80;64.20;100556.81;5090784;28;20199;-79
2022/03/12 00:25:49;;;;;;;17.83;10.87;;;;;;;0.85;65.38;100601.25;5090655;28;20299;-79
2022/03/12 00:28:16;;;;;;;18.60;9.27;;;;;;;0.80;64.47;100596.84;5093416;28;20297;-79
2022/03/12 00:30:45;;;;;;;17.90;8.33;;;;;;;0.49;64.90;100552.56;5110924;28;20198;-79
2022/03/12 00:33:12;;;;;;;12.30;8.50;;;;;;;-0.12;65.85;100468.25;5110886;28;20248;-79
2022/03/12 00:35:39;;;;;;;13.67;8.60;;;;;;;0.48;66.41;100607.00;5101261;28;20203;-78
2022/03/12 00:38:07;;;;;;;11.60;8.00;;;;;;;0.51;66.65;100613.91;5095605;28;20666;-77
2022/03/12 00:40:37;;;;;;;10.63;7.30;;;;;;;0.20;69.66;100605.34;5110684;28;20220;-78
2022/03/12 00:43:05;;;;;;;10.20;7.30;;;;;;;-0.03;73.70;100617.41;5110767;28;20292;-78
2022/03/12 00:45:31;;;;;;;14.93;8.07;;;;;;;-0.25;78.33;100614.13;5111014;28;20209;-78
2022/03/12 00:47:58;;;;;;;9.83;7.30;;;;;;;-0.62;80.75;100573.81;5110576;28;20707;-80
2022/03/12 00:50:25;;;;;;;9.00;7.50;;;;;;;-0.49;84.94;100609.09;5113995;28;20203;-82
2022/03/12 00:52:53;;;;;;;14.33;8.30;;;;;;;-0.68;95.81;100628.03;5114588;28;20190;-78
2022/03/12 00:55:21;;;;;;;12.43;8.70;;;;;;;-0.79;100.00;100614.88;5114715;28;20313;-79
2022/03/12 00:57:48;;;;;;;11.77;7.77;;;;;;;-1.05;100.00;100574.03;5114731;28;20198;-79
2022/03/12 01:00:18;;;;;;;15.97;8.83;;;;;;;-0.92;100.00;100616.97;5114537;28;20198;-77
2022/03/12 01:02:46;;;;;;;11.93;8.13;;;;;;;-1.19;100.00;100587.16;5114409;28;20217;-77
2022/03/12 01:05:16;;;;;;;12.47;9.13;;;;;;;-1.86;100.00;100504.97;5114569;28;20648;-79
2022/03/12 01:07:43;;;;;;;10.60;7.57;;;;;;;-1.37;100.00;100618.75;5114666;28;20239;-79
2022/03/12 01:10:10;;;;;;;13.37;8.10;;;;;;;-1.72;100.00;100575.03;5114494;28;20580;-79
2022/03/12 01:12:39;;;;;;;10.30;8.17;;;;;;;-1.69;100.00;100589.56;5114585;28;20191;-78
2022/03/12 01:15:07;;;;;;;11.30;7.90;;;;;;;-1.56;100.00;100600.25;5114166;28;20191;-80
2022/03/12 01:17:34;;;;;;;8.33;5.57;;;;;;;-2.03;100.00;100555.19;5114213;28;20194;-80
2022/03/12 01:20:02;;;;;;;8.70;6.97;;;;;;;-1.79;100.00;100621.41;5114133;28;20186;-80
2022/03/12 01:22:33;;;;;;;12.53;8.20;;;;;;;-1.83;100.00;100624.66;5114132;28;20214;-79
2022/03/12 01:25:00;;;;;;;11.57;8.57;;;;;;;-2.03;100.00;100625.59;5114141;28;20199;-80
2022/03/12 01:27:26;;;;;;;10.43;8.07;;;;;;;-2.15;100.00;100628.50;5114212;28;20197;-80
2022/03/12 01:29:55;;;;;;;10.13;8.00;;;;;;;-2.56;100.00;100548.03;5114053;28;20195;-79
2022/03/12 01:32:22;;;;;;;13.67;7.97;;;;;;;-2.47;100.00;100570.41;5113914;28;20191;-80
2022/03/12 01:34:49;;;;;;;13.80;8.10;;;;;;;-2.13;100.00;100620.91;5113755;28;20199;-79
2022/03/12 01:37:19;;;;;;;14.40;8.90;;;;;;;-2.25;100.00;100624.72;5113706;28;20201;-78
2022/03/12 01:39:46;;;;;;;8.43;5.67;;;;;;;-2.20;100.00;100620.69;5113752;28;20195;-80
2022/03/12 01:42:14;;;;;;;12.37;8.00;;;;;;;-2.25;100.00;100622.16;5113645;28;20244;-80
2022/03/12 01:44:41;;;;;;;10.50;8.50;;;;;;;-2.26;100.00;100619.59;5113482;28;20277;-81
2022/03/12 01:47:11;;;;;;;13.97;9.03;;;;;;;-2.28;100.00;100624.59;5113235;28;20230;-80
2022/03/12 01:49:39;;;;;;;12.97;8.00;;;;;;;-2.26;100.00;100628.06;5113844;28;20678;-80
2022/03/12 01:52:07;;;;;;;12.97;8.50;;;;;;;-2.33;100.00;100626.09;5113426;28;20191;-80
2022/03/12 01:54:34;;;;;;;12.10;8.97;;;;;;;-2.34;100.00;100629.44;5113587;28;20602;-79
2022/03/12 01:57:03;;;;;;;18.27;9.07;;;;;;;-2.28;100.00;100639.00;5113372;28;20197;-79
2022/03/12 01:59:30;;;;;;;16.83;9.47;;;;;;;-2.40;100.00;100634.28;5113335;28;20190;-79
2022/03/12 02:01:57;;;;;;;13.47;9.47;;;;;;;-2.41;100.00;100640.16;5113258;28;20222;-78
2022/03/12 02:04:29;;;;;;;15.70;10.03;;;;;;;-2.35;100.00;100637.84;5113396;28;20218;-78
2022/03/12 02:06:58;;;;;;;14.57;7.60;;;;;;;-2.40;100.00;100633.41;5113572;28;20196;-80
2022/03/12 02:09:26;;;;;;;14.53;8.97;;;;;;;-2.47;100.00;100621.22;5113277;28;20202;-80
2022/03/12 02:11:54;;;;;;;13.40;9.03;;;;;;;-2.44;100.00;100626.44;5113077;28;20200;-81
2022/03/12 02:14:23;;;;;;;17.90;9.03;;;;;;;-2.39;100.00;100623.31;5113096;28;20570;-79
2022/03/12 02:16:51;;;;;;;14.27;8.90;;;;;;;-2.44;100.00;100612.06;5112979;28;20202;-79
2022/03/12 02:19:19;;;;;;;13.13;8.97;;;;;;;-2.42;100.00;100625.72;5112781;28;20286;-79
2022/03/12 02:21:52;;;;;;;15.90;9.17;;;;;;;-2.38;100.00;100621.63;5112901;28;20257;-79
2022/03/12 02:24:22;;;;;;;19.90;9.80;;;;;;;-2.33;100.00;100627.75;5112806;28;20201;-80
2022/03/12 02:26:50;;;;;;;16.67;9.70;;;;;;;-2.26;100.00;100625.50;5113208;28;20202;-78
2022/03/12 02:29:21;;;;;;;12.30;7.20;;;;;;;-2.21;100.00;100613.84;5112932;28;20197;-79
2022/03/12 02:31:50;;;;;;;21.33;10.67;;;;;;;-2.22;100.00;100624.84;5112851;28;20198;-79
2022/03/12 02:34:22;;;;;;;25.03;10.07;;;;;;;-2.10;100.00;100624.47;5112716;28;20194;-79
2022/03/12 02:36:51;;;;;;;21.77;11.27;;;;;;;-2.12;100.00;100618.44;5112715;28;20190;-79
2022/03/12 02:39:18;;;;;;;20.20;10.77;;;;;;;-1.98;100.00;100629.16;5112750;28;20202;-77
2022/03/12 02:41:47;;;;;;;22.20;11.07;;;;;;;-1.92;100.00;100631.97;5112807;28;20222;-81
2022/03/12 02:44:18;;;;;;;23.73;10.27;;;;;;;-1.96;100.00;100613.16;5112877;28;20200;-80
2022/03/12 02:47:14;;;;;;;18.20;8.93;;;;;;;-1.94;100.00;100631.03;5112503;28;20615;-80
2022/03/12 02:49:47;;;;;;;17.00;8.73;;;;;;;-2.07;100.00;100613.53;5112420;28;20202;-79
2022/03/12 02:52:14;;;;;;;17.70;9.53;;;;;;;-2.31;100.00;100570.22;5112396;28;20229;-78
2022/03/12 02:54:42;;;;;;;15.70;9.03;;;;;;;-2.07;100.00;100599.16;5112397;28;20191;-80
2022/03/12 02:57:11;;;;;;;19.93;9.03;;;;;;;-2.44;100.00;100551.06;5112674;28;20201;-79
2022/03/12 02:59:38;;;;;;;17.77;8.73;;;;;;;-1.91;100.00;100636.22;5112732;28;20191;-80
2022/03/12 03:02:08;;;;;;;16.53;8.53;;;;;;;-2.14;100.00;100591.22;5112113;28;20222;-81
2022/03/12 03:04:36;;;;;;;15.03;8.13;;;;;;;-1.93;100.00;100632.75;5112451;28;20198;-79
2022/03/12 03:07:04;;;;;;;15.70;8.23;;;;;;;-1.89;100.00;100634.59;5112285;28;20191;-80
2022/03/12 03:09:31;;;;;;;18.97;9.73;;;;;;;-2.08;100.00;100616.88;5112697;28;20230;-80
2022/03/12 03:11:57;;;;;;;17.33;9.37;;;;;;;-1.88;100.00;100638.88;5111704;28;20663;-80
2022/03/12 03:14:27;;;;;;;15.67;9.03;;;;;;;-1.86;100.00;100639.81;5112484;28;20200;-81
2022/03/12 03:16:54;;;;;;;16.97;9.97;;;;;;;-1.95;100.00;100619.09;5112160;28;20198;-80
2022/03/12 03:19:25;;;;;;;15.00;8.57;;;;;;;-1.80;100.00;100637.50;5112356;28;20194;-80
2022/03/12 03:21:54;;;;;;;14.53;8.37;;;;;;;-1.76;100.00;100634.25;5112240;28;20218;-81
2022/03/12 03:24:21;;;;;;;13.43;9.40;;;;;;;-1.86;100.00;100634.72;5112225;28;20581;-81
2022/03/12 03:26:55;;;;;;;16.97;9.73;;;;;;;-1.84;100.00;100640.75;5112192;28;20198;-82
2022/03/12 03:29:24;;;;;;;13.70;8.97;;;;;;;-1.88;100.00;100623.63;5112449;28;20584;-81
2022/03/12 03:31:52;;;;;;;13.77;8.33;;;;;;;-1.85;100.00;100611.00;5112235;28;20191;-82
2022/03/12 03:34:20;;;;;;;12.37;7.97;;;;;;;-1.70;100.00;100629.44;5112007;28;20768;-82
2022/03/12 03:36:48;;;;;;;12.23;7.93;;;;;;;-1.66;100.00;100649.06;5111809;28;20190;-80
2022/03/12 03:39:15;;;;;;;12.47;7.77;;;;;;;-1.98;100.00;100588.44;5112216;28;20191;-80
2022/03/12 03:41:43;;;;;;;11.90;7.37;;;;;;;-1.71;100.00;100635.31;5112382;28;20218;-79
2022/03/12 03:44:10;;;;;;;15.47;8.10;;;;;;;-1.64;100.00;100642.38;5112477;28;20197;-81
2022/03/12 03:46:37;;;;;;;13.47;7.40;;;;;;;-1.67;100.00;100633.75;5112447;28;20652;-81
2022/03/12 03:49:06;;;;;;;10.43;7.37;;;;;;;-1.60;100.00;100644.22;5111799;28;20237;-80
2022/03/12 03:51:37;;;;;;;9.93;7.33;;;;;;;-1.66;99.05;100626.16;5112128;28;20581;-82
2022/03/12 03:54:08;;;;;;;12.23;7.20;;;;;;;-1.75;98.94;100614.78;5111728;28;20199;-81
2022/03/12 03:56:36;;;;;;;8.53;6.60;;;;;;;-1.70;93.51;100639.59;5111460;28;20201;-83
2022/03/12 03:59:03;;;;;;;13.27;6.50;;;;;;;-1.64;94.44;100647.47;5111588;28;20233;-82
2022/03/12 04:01:31;;;;;;;9.53;6.83;;;;;;;-1.72;95.16;100656.50;5111364;28;20625;-82
2022/03/12 04:03:58;;;;;;;10.67;6.77;;;;;;;-1.67;92.92;100654.97;5111422;28;20637;-82
2022/03/12 04:06:26;;;;;;;9.17;6.13;;;;;;;-1.65;92.91;100660.13;5111169;28;20222;-80
2022/03/12 04:08:54;;;;;;;11.10;6.73;;;;;;;-1.87;91.76;100615.16;5111306;28;20581;-81
2022/03/12 04:11:23;;;;;;;9.00;6.60;;;;;;;-1.54;91.38;100654.63;5111364;28;20191;-81
2022/03/12 04:13:51;;;;;;;8.93;6.00;;;;;;;-1.93;90.14;100607.31;5111117;28;20194;-81
2022/03/12 04:16:19;;;;;;;9.70;6.63;;;;;;;-1.65;88.79;100662.66;5117122;27;20193;-82
2022/03/12 04:18:48;;;;;;;7.20;5.60;;;;;;;-1.69;88.90;100665.94;5131504;27;20190;-82
2022/03/12 04:21:17;;;;;;;8.77;6.37;;;;;;;-1.72;89.95;100671.75;5131401;27;20194;-81
2022/03/12 04:23:46;;;;;;;9.23;6.40;;;;;;;-2.04;89.22;100617.09;5131833;27;20194;-81
2022/03/12 04:26:14;;;;;;;7.97;6.00;;;;;;;-1.80;89.11;100679.88;5131577;27;20186;-82
2022/03/12 04:28:41;;;;;;;9.80;6.40;;;;;;;-1.91;88.53;100661.66;5131469;27;20197;-81
2022/03/12 04:31:09;;;;;;;18.57;11.23;;;;;;;-1.74;86.07;100678.47;5110796;27;20599;-84
2022/03/12 04:33:38;;;;;;;17.00;10.93;;;;;;;-1.86;87.60;100680.53;5110327;28;20664;-81
2022/03/12 04:36:06;;;;;;;20.13;11.50;;;;;;;-1.74;86.83;100683.56;5109734;28;20214;-82
2022/03/12 04:38:33;;;;;;;12.80;8.57;;;;;;;-1.74;85.87;100682.69;5110270;28;20659;-77
2022/03/12 04:41:02;;;;;;;10.83;7.43;;;;;;;-1.71;86.51;100681.13;5110078;28;20219;-86
2022/03/12 04:43:30;;;;;;;14.67;7.43;;;;;;;-1.65;86.66;100690.66;5109101;28;20245;-82
2022/03/12 04:46:00;;;;;;;11.13;7.30;;;;;;;-1.77;85.77;100654.56;5106430;28;20655;-80
2022/03/12 04:48:28;;;;;;;7.67;6.27;;;;;;;-1.42;85.70;100701.75;5108684;28;20222;-82
2022/03/12 04:50:56;;;;;;;10.97;7.40;;;;;;;-1.39;85.97;100689.13;5103419;28;20218;-79
2022/03/12 04:53:23;;;;;;;12.50;7.90;;;;;;;-1.37;85.48;100685.84;5106786;28;20214;-81
2022/03/12 04:55:50;;;;;;;13.67;9.27;;;;;;;-1.36;84.50;100669.75;5106487;28;20728;-79
2022/03/12 04:58:25;;;;;;;11.40;7.73;;;;;;;-1.32;84.15;100666.47;5106175;28;20210;-79
2022/03/12 05:00:52;;;;;;;13.73;7.87;;;;;;;-1.11;83.77;100697.84;5107247;28;20634;-82
2022/03/12 05:03:25;;;;;;;9.83;7.40;;;;;;;-1.14;83.79;100671.41;5101682;28;20238;-79
2022/03/12 05:05:55;;;;;;;7.63;6.57;;;;;;;-1.09;83.03;100659.69;5101955;28;20295;-81
2022/03/12 05:08:24;;;;;;;10.63;6.93;;;;;;;-0.82;82.51;100688.72;5105385;28;20322;-81
2022/03/12 05:10:53;;;;;;;13.70;8.03;;;;;;;-0.75;80.91;100698.31;5103012;28;20236;-81
2022/03/12 05:13:24;;;;;;;14.53;9.17;;;;;;;-1.15;80.84;100628.91;5103633;28;20215;-84
2022/03/12 05:15:52;;;;;;;15.27;9.70;;;;;;;-0.71;79.89;100699.28;5104914;28;20243;-82
2022/03/12 05:18:23;;;;;;;15.13;9.73;;;;;;;-0.55;79.45;100690.47;5107219;28;20217;-83
2022/03/12 05:20:51;;;;;;;16.57;10.37;;;;;;;-0.30;78.63;100699.84;5101328;28;20251;-87
2022/03/12 05:23:20;;;;;;;17.20;10.13;;;;;;;-0.54;78.83;100659.06;5103406;28;20618;-82
2022/03/12 05:25:49;;;;;;;16.37;9.50;;;;;;;-0.97;77.73;100576.03;5101791;28;20225;-84
2022/03/12 05:28:25;;;;;;;18.90;9.80;;;;;;;-0.02;76.87;100703.38;5105878;28;20225;-84
2022/03/12 05:30:54;;;;;;;23.17;11.57;;;;;;;-0.03;75.75;100673.56;5111506;28;20217;-85
2022/03/12 05:33:21;;;;;;;20.23;12.03;;;;;;;0.30;74.56;100693.31;5110883;28;20220;-78
2022/03/12 05:35:51;;;;;;;15.90;9.23;;;;;;;0.52;72.93;100677.81;5111621;28;20218;-78
2022/03/12 05:38:18;;;;;;;12.47;8.03;;;;;;;0.96;71.38;100716.59;5113722;28;20224;-78
2022/03/12 05:40:48;;;;;;;13.33;7.40;;;;;;;1.11;68.82;100671.00;5114007;28;20269;-78
2022/03/12 05:43:25;;;;;;;13.23;8.30;;;;;;;1.75;67.01;100663.31;5113904;28;20269;-78
2022/03/12 05:45:53;;;;;;;12.20;8.30;;;;;;;3.05;65.23;100709.84;5113720;28;20706;-83
2022/03/12 05:48:21;;;;;;;16.03;9.70;;;;;;;3.88;62.31;100719.13;5112746;28;20281;-80
2022/03/12 05:50:55;;;;;;;23.13;11.87;;;;;;;4.09;61.81;100671.50;5112974;28;20241;-78
2022/03/12 05:53:22;;;;;;;31.13;13.33;;;;;;;4.88;59.94;100683.78;5111110;28;20654;-76
2022/03/12 05:55:49;;;;;;;25.17;13.03;;;;;;;4.71;59.21;100690.44;5111606;28;20214;-78
2022/03/12 05:58:19;;;;;;;23.40;15.13;;;;;;;5.56;59.21;100722.34;5113479;28;20223;-79
2022/03/12 06:00:49;;;;;;;27.77;13.93;;;;;;;6.41;57.36;100735.22;5113031;28;20747;-79
2022/03/12 06:03:16;;;;;;;14.93;11.00;;;;;;;6.71;56.11;100726.81;5111750;28;20232;-77
2022/03/12 06:05:43;;;;;;;16.50;10.10;;;;;;;7.24;54.87;100729.66;5113107;28;20471;-78
2022/03/12 06:08:15;;;;;;;16.23;10.67;;;;;;;7.88;54.37;100735.88;5105857;28;20222;-77
2022/03/12 06:10:45;;;;;;;18.87;10.47;;;;;;;7.92;53.21;100697.97;5113790;28;20318;-80
2022/03/12 06:13:13;;;;;;;18.50;11.47;;;;;;;7.99;52.29;100685.06;5108885;28;20234;-78
2022/03/12 06:15:41;;;;;;;17.47;11.17;;;;;;;8.95;51.13;100748.78;5088276;28;20653;-80
2022/03/12 06:18:09;;;;;;;16.70;12.23;;;;;;;8.59;49.96;100714.34;5092916;28;20241;-79
2022/03/12 06:20:37;;;;;;;16.47;11.93;;;;;;;9.27;49.53;100754.72;5092388;28;20215;-80
2022/03/12 06:23:05;;;;;;;16.33;11.77;;;;;;;10.04;48.61;100737.91;5092586;28;20229;-78
2022/03/12 06:25:32;;;;;;;16.07;11.40;;;;;;;10.88;47.31;100768.34;5098645;28;20227;-78
2022/03/12 06:27:59;;;;;;;13.87;10.97;;;;;;;11.77;45.36;100761.25;5107024;27;20225;-78
2022/03/12 06:30:28;;;;;;;14.80;10.67;;;;;;;11.89;44.30;100770.63;5103386;27;20211;-79
2022/03/12 06:32:57;;;;;;;13.20;10.43;;;;;;;12.39;43.06;100771.63;5100174;28;20214;-78
2022/03/12 06:35:27;;;;;;;13.73;10.77;;;;;;;12.56;42.26;100774.78;5106226;28;20218;-77
2022/03/12 06:37:56;;;;;;;16.73;11.33;;;;;;;13.26;41.04;100771.81;5108781;28;20335;-79
2022/03/12 06:40:28;;;;;;;16.80;11.70;;;;;;;13.43;40.64;100779.31;5107549;28;20211;-79
2022/03/12 06:42:56;;;;;;;17.63;12.80;;;;;;;13.57;39.08;100745.94;5105247;28;20251;-78
2022/03/12 06:45:24;;;;;;;16.53;12.63;;;;;;;14.53;37.79;100743.72;5107407;28;20605;-79
2022/03/12 06:47:52;;;;;;;16.40;12.60;;;;;;;14.33;37.41;100764.25;5111277;28;20234;-79
2022/03/12 06:50:22;;;;;;;16.63;12.90;;;;;;;14.90;36.39;100777.59;5102875;28;20191;-79
2022/03/12 06:52:51;;;;;;;14.00;12.43;;;;;;;14.23;36.31;100774.03;5112029;28;20175;-80
2022/03/12 06:55:21;;;;;;;14.70;12.43;;;;;;;14.81;36.42;100785.69;5107579;28;20191;-80
2022/03/12 06:57:50;;;;;;;14.63;13.10;;;;;;;14.33;36.08;100738.97;5109303;27;20225;-82
2022/03/12 07:00:19;;;;;;;16.53;14.30;;;;;;;14.58;36.66;100798.47;5112063;28;20226;-81
2022/03/12 07:02:46;;;;;;;14.87;13.33;;;;;;;14.46;36.38;100800.47;5112632;28;20309;-80
2022/03/12 07:05:13;;;;;;;17.37;14.33;;;;;;;14.88;35.78;100797.72;5111843;28;20227;-80
2022/03/12 07:07:40;;;;;;;14.73;12.73;;;;;;;14.94;35.37;100771.38;5100998;28;20271;-79
2022/03/12 07:10:10;;;;;;;16.70;13.30;;;;;;;15.65;34.04;100799.09;5103481;28;20215;-80
2022/03/12 07:12:37;;;;;;;15.43;12.80;;;;;;;15.15;34.23;100743.78;5110365;28;20328;-77
2022/03/12 07:15:06;;;;;;;17.00;13.80;;;;;;;16.18;33.83;100794.84;5108044;28;20718;-81
2022/03/12 07:17:34;;;;;;;15.60;14.00;;;;;;;16.51;32.79;100790.28;5104384;28;20663;-81
2022/03/12 07:20:03;;;;;;;14.40;12.87;;;;;;;17.33;31.46;100796.19;5113569;28;20218;-80
2022/03/12 07:22:30;;;;;;;20.67;13.07;;;;;;;16.67;32.05;100792.41;5104786;28;20214;-77
2022/03/12 07:24:57;;;;;;;18.10;13.10;;;;;;;15.46;34.48;100801.38;5106217;27;20217;-78
2022/03/12 07:27:25;;;;;;;14.73;13.17;;;;;;;15.95;33.87;100812.13;5131525;27;20240;-79
2022/03/12 07:29:52;;;;;;;14.77;13.27;;;;;;;16.09;33.77;100818.72;5131494;27;20274;-78
2022/03/12 07:32:20;;;;;;;20.37;14.03;;;;;;;15.53;34.27;100810.75;5131882;27;20225;-79
2022/03/12 07:34:48;;;;;;;15.97;14.30;;;;;;;14.58;35.51;100811.53;5129171;27;20316;-79
2022/03/12 07:37:15;;;;;;;16.43;14.13;;;;;;;13.04;38.29;100810.41;5110907;28;20223;-79
2022/03/12 07:39:42;;;;;;;21.80;16.27;;;;;;;11.31;41.79;100768.75;5111405;28;20218;-79
2022/03/12 07:42:09;;;;;;;19.67;16.33;;;;;;;10.35;42.80;100815.56;5111125;28;20629;-79
2022/03/12 07:44:39;;;;;;;21.03;15.03;;;;;;;9.25;45.96;100816.09;5110675;28;20230;-77
2022/03/12 07:47:07;;;;;;;17.70;14.60;;;;;;;8.34;48.47;100814.44;5110503;28;20280;-80
2022/03/12 07:49:35;;;;;;;19.63;14.87;;;;;;;6.41;52.09;100669.03;5098193;28;20221;-79
2022/03/12 07:52:02;;;;;;;19.70;15.03;;;;;;;6.40;53.31;100680.19;5096527;28;20230;-83
2022/03/12 07:54:30;;;;;;;23.37;14.80;;;;;;;6.68;53.82;100804.19;5104632;28;20221;-80
2022/03/12 07:56:56;;;;;;;19.07;14.03;;;;;;;5.68;54.79;100688.13;5107703;27;20688;-82
2022/03/12 07:59:25;;;;;;;18.13;13.67;;;;;;;5.70;56.70;100805.81;5103649;28;20284;-82
2022/03/12 08:01:54;;;;;;;20.00;13.60;;;;;;;5.50;58.21;100809.84;5107045;28;20218;-81
2022/03/12 08:04:20;;;;;;;22.20;14.13;;;;;;;5.54;57.67;100793.56;5102968;28;20223;-79
2022/03/12 08:06:48;;;;;;;19.60;14.53;;;;;;;5.37;59.48;100800.25;5100115;28;20215;-81
2022/03/12 08:09:15;;;;;;;19.10;14.33;;;;;;;5.18;59.70;100804.31;5105769;28;20701;-83
2022/03/12 08:11:42;;;;;;;20.37;15.13;;;;;;;4.97;60.15;100804.84;5095412;28;20226;-83
2022/03/12 08:14:15;;;;;;;22.67;13.97;;;;;;;4.62;60.81;100796.63;5097271;28;20211;-80
2022/03/12 08:16:44;;;;;;;21.00;14.40;;;;;;;4.48;60.99;100789.53;5105111;28;20218;-80
2022/03/12 08:19:12;;;;;;;19.00;14.20;;;;;;;4.15;61.73;100784.69;5105902;28;20233;-81
2022/03/12 08:21:39;;;;;;;21.07;14.03;;;;;;;4.04;62.75;100797.34;5104228;28;20317;-80
2022/03/12 08:24:09;;;;;;;22.63;15.20;;;;;;;4.01;62.85;100804.97;5105848;28;20219;-81
2022/03/12 08:26:41;;;;;;;21.60;12.97;;;;;;;4.02;60.21;100811.84;5102169;28;20234;-82
2022/03/12 08:29:09;;;;;;;15.90;12.17;;;;;;;3.86;60.03;100789.28;5111447;28;20223;-82
2022/03/12 08:31:36;;;;;;;15.27;11.00;;;;;;;3.93;56.75;100811.69;5110273;28;20705;-81
2022/03/12 08:34:04;;;;;;;15.17;11.03;;;;;;;3.99;57.26;100809.22;5109002;28;20226;-80
2022/03/12 08:36:32;;;;;;;14.53;11.13;;;;;;;4.20;57.85;100812.19;5109763;28;20260;-81
2022/03/12 08:38:59;;;;;;;13.90;10.77;;;;;;;4.33;55.75;100810.69;5110698;28;20606;-81
2022/03/12 08:41:27;;;;;;;14.33;10.30;;;;;;;3.72;54.03;100713.72;5110677;28;20221;-81
2022/03/12 08:43:54;;;;;;;15.90;11.07;;;;;;;4.23;53.66;100796.81;5110224;28;20234;-81
2022/03/12 08:46:21;;;;;;;11.77;10.10;;;;;;;4.31;52.77;100840.63;5111241;28;20223;-81
2022/03/12 08:48:49;;;;;;;16.60;11.10;;;;;;;4.05;52.15;100787.94;5110362;28;20242;-84
2022/03/12 08:51:15;;;;;;;14.13;9.93;;;;;;;3.98;51.19;100771.53;5111334;28;20229;-84
2022/03/12 08:53:44;;;;;;;15.77;11.23;;;;;;;3.71;51.33;100747.94;5112052;28;20287;-86
2022/03/12 08:56:11;;;;;;;15.13;11.27;;;;;;;3.95;52.64;100831.41;5107946;28;20716;-80
2022/03/12 08:58:41;;;;;;;13.33;10.30;;;;;;;4.11;53.29;100840.28;5104176;28;20195;-82
2022/03/12 09:01:08;;;;;;;15.83;10.57;;;;;;;4.30;52.68;100838.91;5110706;28;20194;-85
2022/03/12 09:03:36;;;;;;;12.53;9.40;;;;;;;4.31;51.20;100813.22;5110118;28;20301;-82
2022/03/12 09:06:04;;;;;;;14.17;9.40;;;;;;;4.40;48.78;100770.53;5105646;28;20639;-85
2022/03/12 09:08:31;;;;;;;10.23;9.13;;;;;;;4.23;47.67;100750.56;5111480;28;20205;-81
2022/03/12 09:10:59;;;;;;;10.70;8.80;;;;;;;4.66;48.21;100842.09;5110591;28;20218;-84
2022/03/12 09:13:27;;;;;;;10.30;8.43;;;;;;;4.74;48.48;100831.91;5115101;28;20667;-85
2022/03/12 09:15:54;;;;;;;15.03;10.13;;;;;;;4.69;47.00;100802.72;5114876;28;20282;-84
2022/03/12 09:18:21;;;;;;;12.27;9.70;;;;;;;5.08;46.63;100844.44;5115195;28;20716;-81
2022/03/12 09:20:49;;;;;;;12.23;8.93;;;;;;;4.37;46.57;100755.94;5114855;28;20205;-82
2022/03/12 09:23:17;;;;;;;8.10;7.13;;;;;;;4.67;45.60;100848.09;5101961;27;20238;-81
2022/03/12 09:25:45;;;;;;;14.40;9.70;;;;;;;4.29;45.63;100796.03;5095464;28;20742;-86
2022/03/12 09:28:13;;;;;;;8.83;7.93;;;;;;;4.32;45.29;100783.25;5097425;28;20225;-86
2022/03/12 09:30:41;;;;;;;14.63;7.73;;;;;;;4.14;45.09;100764.97;5097928;28;20314;-82
2022/03/12 09:33:09;;;;;;;12.30;7.70;;;;;;;4.50;44.66;100849.56;5098603;28;20251;-88
2022/03/12 09:35:36;;;;;;;15.23;8.53;;;;;;;4.19;43.83;100797.59;5096331;28;20280;-88
2022/03/12 09:38:04;;;;;;;9.27;6.90;;;;;;;3.70;43.21;100725.66;5098047;28;20219;-87
2022/03/12 09:40:32;;;;;;;9.17;7.30;;;;;;;4.28;42.47;100830.31;5099584;28;20305;-90
2022/03/12 09:43:00;;;;;;;9.37;7.00;;;;;;;4.11;43.03;100804.31;5100902;28;20283;-85
2022/03/12 09:45:28;;;;;;;9.87;7.93;;;;;;;4.32;41.89;100827.81;5097565;28;20225;-86
2022/03/12 09:47:55;;;;;;;10.57;7.67;;;;;;;4.26;43.05;100832.00;5115025;28;20238;-85
2022/03/12 09:50:23;;;;;;;9.73;7.30;;;;;;;4.14;43.92;100835.22;5114920;28;20238;-83
2022/03/12 09:52:50;;;;;;;13.10;10.07;;;;;;;4.22;44.63;100825.91;5113093;28;20679;-85
2022/03/12 09:55:18;;;;;;;15.50;9.33;;;;;;;4.23;44.08;100822.50;5112836;28;20218;-83
2022/03/12 09:57:45;;;;;;;10.37;7.13;;;;;;;4.10;42.39;100812.84;5112436;28;20226;-86
2022/03/12 10:00:13;;;;;;;9.40;6.90;;;;;;;3.72;42.13;100750.53;5115336;28;20226;-84
2022/03/12 10:02:44;;;;;;;24.60;10.87;;;;;;;4.36;43.26;100824.47;5118406;28;20241;-88
2022/03/12 10:05:13;;;;;;;9.90;7.53;;;;;;;4.49;42.07;100815.25;5116203;28;20230;-87
2022/03/12 10:07:41;;;;;;;7.60;6.87;;;;;;;4.39;41.10;100803.09;5115918;28;20218;-87
2022/03/12 10:10:14;;;;;;;6.43;5.83;;;;;;;4.11;40.33;100781.19;5117756;28;20613;-84
2022/03/12 10:12:41;;;;;;;8.20;6.17;;;;;;;3.56;39.68;100671.47;5118099;28;20199;-87
2022/03/12 10:15:10;;;;;;;13.13;7.93;;;;;;;3.22;40.31;100736.69;5117467;28;20230;-87
2022/03/12 10:17:37;;;;;;;6.17;5.53;;;;;;;3.82;41.04;100808.06;5120711;28;20193;-87
2022/03/12 10:20:08;;;;;;;9.47;6.47;;;;;;;3.41;41.07;100808.09;5115065;28;20201;-87
2022/03/12 10:22:35;;;;;;;7.10;6.00;;;;;;;3.11;41.34;100686.88;5113705;28;20226;-88
2022/03/12 10:25:02;;;;;;;6.00;5.50;;;;;;;4.03;44.80;100764.78;5113117;28;20322;-87
2022/03/12 10:27:29;;;;;;;9.00;6.63;;;;;;;3.92;42.40;100673.81;5116784;28;20190;-92
2022/03/12 10:29:56;;;;;;;7.37;6.53;;;;;;;5.04;40.58;100791.22;5117047;28;20225;-84
2022/03/12 10:32:25;;;;;;;8.83;5.53;;;;;;;5.37;40.31;100790.81;5115715;28;20191;-87
2022/03/12 10:34:55;;;;;;;6.00;5.40;;;;;;;5.33;39.26;100752.13;5115207;28;20294;-80
2022/03/12 10:37:25;;;;;;;7.20;6.17;;;;;;;5.61;39.33;100785.09;5113848;28;20238;-82
2022/03/12 10:40:03;;;;;;;6.10;5.50;;;;;;;4.73;39.13;100673.34;5113831;28;20682;-83
2022/03/12 10:42:31;;;;;;;6.23;5.67;;;;;;;5.21;39.71;100762.28;5113729;28;20194;-84
2022/03/12 10:45:08;;;;;;;7.23;6.50;;;;;;;5.10;38.21;100739.84;5113226;28;20230;-84
2022/03/12 10:47:41;;;;;;;7.10;5.73;;;;;;;5.40;39.71;100769.41;5113160;28;20231;-82
2022/03/12 10:50:14;;;;;;;7.63;5.57;;;;;;;5.23;39.14;100778.59;5114928;28;20285;-84
2022/03/12 10:52:47;;;;;;;9.43;6.50;;;;;;;5.08;40.11;100777.53;5113662;28;20585;-85
2022/03/12 10:55:18;;;;;;;7.33;6.40;;;;;;;4.34;40.02;100664.22;5113393;28;20552;-82
2022/03/12 10:58:01;;;;;;;5.80;5.30;;;;;;;4.77;41.21;100756.53;5113457;28;20201;-83
2022/03/12 11:00:31;;;;;;;6.43;5.83;;;;;;;4.11;42.14;100652.72;5113213;28;20198;-84
2022/03/12 11:03:00;;;;;;;9.60;5.53;;;;;;;4.29;42.54;100727.50;5112863;28;20194;-82
2022/03/12 11:05:29;;;;;;;7.93;5.80;;;;;;;4.62;43.29;100780.31;5112642;28;20297;-82
2022/03/12 11:08:18;;;;;;;9.10;7.07;;;;;;;4.34;47.55;100755.88;5113035;28;20624;-80
2022/03/12 11:10:59;;;;;;;7.17;6.47;;;;;;;3.78;49.73;100742.06;5112938;28;20678;-80
2022/03/12 11:13:34;;;;;;;9.47;7.10;;;;;;;3.92;51.61;100789.41;5113221;28;20611;-80
2022/03/12 11:16:28;;;;;;;8.03;6.57;;;;;;;3.78;53.79;100775.44;5109716;28;20222;-82
2022/03/12 11:19:01;;;;;;;6.83;6.10;;;;;;;3.72;53.84;100772.78;5091149;28;20256;-82
2022/03/12 11:21:37;;;;;;;9.17;6.27;;;;;;;3.83;53.13;100767.00;5097369;28;20233;-79
2022/03/12 11:24:08;;;;;;;7.53;6.73;;;;;;;3.92;50.47;100732.91;5103761;28;20206;-78